Idledale, Colorado
Current Conditions -  °F | °C
As of 11:53 AM on Thursday 23 Oct 2014 (Local Time) from KBJC Reporting Station
Broken Clouds Broken Clouds  
Wind Chill: 70°   Ceiling: 20000
Heat Index: 70°   Visibility: 70mi
Dew Point: 28°   Wind: 7mph
Humidity: 21%   Direction: 250°WSW
Pressure: 30.17"   Gusts: 14mph
Location:  39.67°N, 105.25°W
Report Text: KBJC 231753Z 25006G12KT 70SM SCT120 BKN200 21/M02 A3017
Loading
Personal Weather Stations






























Interactive Weather Map
Tropical Storm Tracking
New forecast layout! Learn more

10-Day Weather Forecast

Advertisements
Track Severe Weather on mobile